createdAt,value
2022-07-25T00:00:39.795Z,4.53
2022-07-25T00:03:06.185Z,4.90
2022-07-25T00:05:37.624Z,5.00
2022-07-25T00:07:58.948Z,5.17
2022-07-25T00:10:25.337Z,5.00
2022-07-25T00:12:51.710Z,4.93
2022-07-25T00:15:18.122Z,4.80
2022-07-25T00:17:44.497Z,5.10
2022-07-25T00:20:10.889Z,5.20
2022-07-25T00:22:37.269Z,5.20
2022-07-25T00:25:03.669Z,4.60
2022-07-25T00:27:30.052Z,4.60
2022-07-25T00:29:56.442Z,4.87
2022-07-25T00:32:22.823Z,5.17
2022-07-25T00:34:49.210Z,4.80
2022-07-25T00:37:15.618Z,5.07
2022-07-25T00:39:42.001Z,4.90
2022-07-25T00:42:08.385Z,5.37
2022-07-25T00:44:34.786Z,5.20
2022-07-25T00:47:01.161Z,4.50
2022-07-25T00:49:27.577Z,4.50
2022-07-25T00:51:53.977Z,4.70
2022-07-25T00:54:20.353Z,4.97
2022-07-25T00:56:48.061Z,5.20
2022-07-25T00:59:14.456Z,5.00
2022-07-25T01:01:39.681Z,4.77
2022-07-25T01:04:06.341Z,4.67
2022-07-25T01:06:32.411Z,5.13
2022-07-25T01:08:58.790Z,5.07
2022-07-25T01:11:25.208Z,5.50
2022-07-25T01:13:51.591Z,4.67
2022-07-25T01:16:18.061Z,4.90
2022-07-25T01:18:44.469Z,5.03
2022-07-25T01:21:10.879Z,5.40
2022-07-25T01:23:37.264Z,5.00
2022-07-25T01:26:03.735Z,4.70
2022-07-25T01:28:30.114Z,5.00
2022-07-25T01:30:56.522Z,5.00
2022-07-25T01:33:22.879Z,4.90
2022-07-25T01:35:49.262Z,4.90
2022-07-25T01:38:15.666Z,5.00
2022-07-25T01:40:42.173Z,5.10
2022-07-25T01:43:08.564Z,4.73
2022-07-25T01:45:34.951Z,5.10
2022-07-25T01:48:01.336Z,4.80
2022-07-25T01:50:27.728Z,4.70
2022-07-25T01:52:54.110Z,4.50
2022-07-25T01:55:20.496Z,5.33
2022-07-25T01:57:49.753Z,4.27
2022-07-25T02:00:13.274Z,5.07
2022-07-25T02:02:39.656Z,4.60
2022-07-25T02:05:06.139Z,4.93
2022-07-25T02:07:32.463Z,4.33
2022-07-25T02:09:58.872Z,5.00
2022-07-25T02:12:25.292Z,4.77
2022-07-25T02:14:51.675Z,5.10
2022-07-25T02:17:18.095Z,5.10
2022-07-25T02:19:44.453Z,4.53
2022-07-25T02:22:10.839Z,4.37
2022-07-25T02:24:37.243Z,4.23
2022-07-25T02:27:03.604Z,4.53
2022-07-25T02:29:30.027Z,4.87
2022-07-25T02:31:56.418Z,4.50
2022-07-25T02:34:22.865Z,4.90
2022-07-25T02:36:49.237Z,4.83
2022-07-25T02:39:15.619Z,4.40
2022-07-25T02:41:43.526Z,4.77
2022-07-25T02:44:08.763Z,5.10
2022-07-25T02:46:35.005Z,4.40
2022-07-25T02:49:01.375Z,4.60
2022-07-25T02:51:27.678Z,3.80
2022-07-25T02:53:57.910Z,4.30
2022-07-25T02:56:21.156Z,4.80
2022-07-25T02:58:46.828Z,4.73
2022-07-25T03:01:13.270Z,4.33
2022-07-25T03:03:39.647Z,4.57
2022-07-25T03:06:07.379Z,4.13
2022-07-25T03:08:32.444Z,4.90
2022-07-25T03:11:00.194Z,4.70
2022-07-25T03:13:25.176Z,4.17
2022-07-25T03:15:51.558Z,4.10
2022-07-25T03:18:17.947Z,4.63
2022-07-25T03:20:44.330Z,4.40
2022-07-25T03:23:11.907Z,4.20
2022-07-25T03:25:37.094Z,4.30
2022-07-25T03:28:03.480Z,4.57
2022-07-25T03:30:31.588Z,4.70
2022-07-25T03:32:56.280Z,4.63
2022-07-25T03:35:22.699Z,4.03
2022-07-25T03:37:49.089Z,4.27
2022-07-25T03:40:15.938Z,4.37
2022-07-25T03:42:41.854Z,4.70
2022-07-25T03:45:08.242Z,4.57
2022-07-25T03:47:34.631Z,4.10
2022-07-25T03:50:01.092Z,4.43
2022-07-25T03:52:27.484Z,4.20
2022-07-25T03:54:53.873Z,4.30
2022-07-25T03:57:20.260Z,3.87
2022-07-25T03:59:46.646Z,4.70
2022-07-25T04:02:13.133Z,4.33
2022-07-25T04:04:39.455Z,4.87
2022-07-25T04:07:05.835Z,4.57
2022-07-25T04:09:33.675Z,4.93
2022-07-25T04:11:58.601Z,5.00
2022-07-25T04:14:24.986Z,4.27
2022-07-25T04:16:51.502Z,3.97
2022-07-25T04:19:17.887Z,4.50
2022-07-25T04:21:44.251Z,4.27
2022-07-25T04:24:10.683Z,4.53
2022-07-25T04:26:37.052Z,4.50
2022-07-25T04:29:03.511Z,4.83
2022-07-25T04:31:29.919Z,4.87
2022-07-25T04:33:56.274Z,4.30
2022-07-25T04:36:22.727Z,4.70
2022-07-25T04:38:49.139Z,4.67
2022-07-25T04:41:15.519Z,4.40
2022-07-25T04:43:48.056Z,4.13
2022-07-25T04:46:08.353Z,4.33
2022-07-25T04:48:34.755Z,4.60
2022-07-25T04:51:01.069Z,4.10
2022-07-25T04:53:27.441Z,4.53
2022-07-25T04:55:53.831Z,4.27
2022-07-25T04:58:20.217Z,3.93
2022-07-25T05:00:46.628Z,4.23
2022-07-25T05:03:13.007Z,3.60
2022-07-25T05:05:39.399Z,4.03
2022-07-25T05:08:05.795Z,4.10
2022-07-25T05:10:32.193Z,4.20
2022-07-25T05:12:58.567Z,4.10
2022-07-25T05:15:24.965Z,4.37
2022-07-25T05:17:51.358Z,4.10
2022-07-25T05:20:17.764Z,3.83
2022-07-25T05:22:44.141Z,4.20
2022-07-25T05:25:10.536Z,4.53
2022-07-25T05:27:36.906Z,3.80
2022-07-25T05:30:03.294Z,4.47
2022-07-25T05:32:29.726Z,4.10
2022-07-25T05:34:56.111Z,4.03
2022-07-25T05:37:22.531Z,4.20
2022-07-25T05:39:48.914Z,3.90
2022-07-25T05:42:15.305Z,3.97
2022-07-25T05:44:41.819Z,3.87
2022-07-25T05:47:08.270Z,3.90
2022-07-25T05:49:34.597Z,4.13
2022-07-25T05:52:00.981Z,3.90
2022-07-25T05:54:27.558Z,3.97
2022-07-25T05:56:53.775Z,4.27
2022-07-25T05:59:20.168Z,3.83
2022-07-25T06:01:46.692Z,3.93
2022-07-25T06:04:12.933Z,4.13
2022-07-25T06:06:39.342Z,4.20
2022-07-25T06:09:08.052Z,3.90
2022-07-25T06:11:32.140Z,4.10
2022-07-25T06:13:58.528Z,4.13
2022-07-25T06:16:25.019Z,3.83
2022-07-25T06:18:51.380Z,3.80
2022-07-25T06:21:17.790Z,3.70
2022-07-25T06:23:45.808Z,3.63
2022-07-25T06:26:10.551Z,4.10
2022-07-25T06:28:36.937Z,3.70
2022-07-25T06:31:03.400Z,3.33
2022-07-25T06:33:29.741Z,3.60
2022-07-25T06:35:56.118Z,4.00
2022-07-25T06:38:22.509Z,3.70
2022-07-25T06:40:48.917Z,3.80
2022-07-25T06:43:15.311Z,4.53
2022-07-25T06:45:41.702Z,3.60
2022-07-25T06:48:08.119Z,3.50
2022-07-25T06:50:34.500Z,4.00
2022-07-25T06:53:00.884Z,3.80
2022-07-25T06:55:27.258Z,3.87
2022-07-25T06:57:53.736Z,3.40
2022-07-25T07:00:20.105Z,3.70
2022-07-25T07:02:46.503Z,3.73
2022-07-25T07:05:12.890Z,3.53
2022-07-25T07:07:40.682Z,3.37
2022-07-25T07:10:05.675Z,3.83
2022-07-25T07:12:32.115Z,3.80
2022-07-25T07:14:58.521Z,3.60
2022-07-25T07:17:24.910Z,3.87
2022-07-25T07:19:51.287Z,3.93
2022-07-25T07:22:17.682Z,3.57
2022-07-25T07:24:48.128Z,3.83
2022-07-25T07:27:10.489Z,4.30
2022-07-25T07:29:37.029Z,3.60
2022-07-25T07:32:03.553Z,3.77
2022-07-25T07:34:29.852Z,3.20
2022-07-25T07:36:57.204Z,4.03
2022-07-25T07:39:22.666Z,3.87
2022-07-25T07:41:49.058Z,3.80
2022-07-25T07:44:15.523Z,4.10
2022-07-25T07:46:43.053Z,3.80
2022-07-25T07:49:09.922Z,3.80
2022-07-25T07:51:35.774Z,3.57
2022-07-25T07:54:02.156Z,3.53
2022-07-25T07:56:28.570Z,3.40
2022-07-25T07:58:54.947Z,3.57
2022-07-25T08:01:21.434Z,3.30
2022-07-25T08:03:47.904Z,3.77
2022-07-25T08:06:14.292Z,3.70
2022-07-25T08:08:40.691Z,3.90
2022-07-25T08:11:07.080Z,3.50
2022-07-25T08:13:33.471Z,3.90
2022-07-25T08:15:59.979Z,3.23
2022-07-25T08:18:26.266Z,3.77
2022-07-25T08:20:52.661Z,3.50
2022-07-25T08:23:19.049Z,3.10
2022-07-25T08:25:45.532Z,3.80
2022-07-25T08:28:11.911Z,4.20
2022-07-25T08:30:38.305Z,3.53
2022-07-25T08:33:04.685Z,3.70
2022-07-25T08:35:31.103Z,3.70
2022-07-25T08:37:57.486Z,3.70
2022-07-25T08:40:23.922Z,3.20
2022-07-25T08:42:51.498Z,3.60
2022-07-25T08:45:16.693Z,4.03
2022-07-25T08:47:43.081Z,3.23
2022-07-25T08:50:09.470Z,3.40
2022-07-25T08:52:35.958Z,3.73
2022-07-25T08:55:02.368Z,3.23
2022-07-25T08:57:28.745Z,3.90
2022-07-25T08:59:55.225Z,3.63
2022-07-25T09:02:21.751Z,3.40
2022-07-25T09:04:47.987Z,3.93
2022-07-25T09:07:14.381Z,4.10
2022-07-25T09:09:40.765Z,3.37
2022-07-25T09:12:07.175Z,3.87
2022-07-25T09:14:33.560Z,3.80
2022-07-25T09:16:59.941Z,3.63
2022-07-25T09:19:26.327Z,3.93
2022-07-25T09:21:52.714Z,3.70
2022-07-25T09:24:19.106Z,4.03
2022-07-25T09:26:45.511Z,3.47
2022-07-25T09:29:16.145Z,3.90
2022-07-25T09:31:38.324Z,3.77
2022-07-25T09:34:04.925Z,3.40
2022-07-25T09:36:33.681Z,3.50
2022-07-25T09:38:57.515Z,3.30
2022-07-25T09:41:23.910Z,3.30
2022-07-25T09:43:50.298Z,3.37
2022-07-25T09:46:16.726Z,3.70
2022-07-25T09:48:43.131Z,3.80
2022-07-25T09:51:09.459Z,3.73
2022-07-25T09:53:35.856Z,3.70
2022-07-25T09:56:02.233Z,3.70
2022-07-25T09:58:28.630Z,3.90
2022-07-25T10:00:55.001Z,3.87
2022-07-25T10:03:21.405Z,3.87
2022-07-25T10:05:47.807Z,3.80
2022-07-25T10:08:14.260Z,3.67
2022-07-25T10:10:40.628Z,3.70
2022-07-25T10:13:10.618Z,3.83
2022-07-25T10:15:33.400Z,3.50
2022-07-25T10:17:59.793Z,3.40
2022-07-25T10:20:26.178Z,3.40
2022-07-25T10:22:57.007Z,3.93
2022-07-25T10:25:18.967Z,3.73
2022-07-25T10:27:45.361Z,3.70
2022-07-25T10:30:11.779Z,4.10
2022-07-25T10:32:38.170Z,3.30
2022-07-25T10:35:04.545Z,3.67
2022-07-25T10:37:30.955Z,4.10
2022-07-25T10:39:57.355Z,3.27
2022-07-25T10:42:23.829Z,3.97
2022-07-25T10:44:50.229Z,3.60
2022-07-25T10:47:16.745Z,4.03
2022-07-25T10:50:00.134Z,3.80
2022-07-25T10:52:09.564Z,3.60
2022-07-25T10:54:35.997Z,3.60
2022-07-25T10:57:02.399Z,3.37
2022-07-25T10:59:28.903Z,3.60
2022-07-25T11:01:55.369Z,3.53
2022-07-25T11:04:21.675Z,3.63
2022-07-25T11:06:48.087Z,3.40
2022-07-25T11:09:17.976Z,3.87
2022-07-25T11:11:40.866Z,3.50
2022-07-25T11:14:07.246Z,3.37
2022-07-25T11:16:33.709Z,3.30
2022-07-25T11:19:00.019Z,3.43
2022-07-25T11:21:26.418Z,3.53
2022-07-25T11:23:52.801Z,3.90
2022-07-25T11:26:19.189Z,3.20
2022-07-25T11:28:45.568Z,3.50
2022-07-25T11:31:11.954Z,3.60
2022-07-25T11:33:38.955Z,3.50
2022-07-25T11:36:04.754Z,3.27
2022-07-25T11:38:31.140Z,3.43
2022-07-25T11:40:57.550Z,3.47
2022-07-25T11:43:23.927Z,3.93
2022-07-25T11:45:50.340Z,3.53
2022-07-25T11:48:16.737Z,3.70
2022-07-25T11:50:43.147Z,3.77
2022-07-25T11:53:09.552Z,3.70
2022-07-25T11:55:35.936Z,3.70
2022-07-25T11:58:02.353Z,3.80
2022-07-25T12:00:28.814Z,3.23
2022-07-25T12:02:55.312Z,3.90
2022-07-25T12:05:21.641Z,3.43
2022-07-25T12:07:48.006Z,3.53
2022-07-25T12:10:14.403Z,3.67
2022-07-25T12:12:40.808Z,3.90
2022-07-25T12:15:07.371Z,3.70
2022-07-25T12:17:33.767Z,3.10
2022-07-25T12:20:00.152Z,3.50
2022-07-25T12:22:26.586Z,3.53
2022-07-25T12:24:53.007Z,3.37
2022-07-25T12:27:19.406Z,3.40
2022-07-25T12:29:45.787Z,3.10
2022-07-25T12:32:12.176Z,3.80
2022-07-25T12:34:38.605Z,3.73
2022-07-25T12:37:05.002Z,3.40
2022-07-25T12:39:31.425Z,3.53
2022-07-25T12:41:57.818Z,3.70
2022-07-25T12:44:24.194Z,3.80
2022-07-25T12:46:50.728Z,3.50
2022-07-25T12:49:17.315Z,3.57
2022-07-25T12:51:43.577Z,3.67
2022-07-25T12:54:10.266Z,3.63
2022-07-25T12:56:36.357Z,3.30
2022-07-25T12:59:02.901Z,3.10
2022-07-25T13:01:29.146Z,3.30
2022-07-25T13:03:55.529Z,3.50
2022-07-25T13:06:21.936Z,3.23
2022-07-25T13:08:48.314Z,3.40
2022-07-25T13:11:14.704Z,3.30
2022-07-25T13:13:41.084Z,3.83
2022-07-25T13:16:07.520Z,3.43
2022-07-25T13:18:33.875Z,3.47
2022-07-25T13:21:00.299Z,3.97
2022-07-25T13:23:26.668Z,3.47
2022-07-25T13:25:53.081Z,3.20
2022-07-25T13:28:19.499Z,2.90
2022-07-25T13:30:45.893Z,3.40
2022-07-25T13:33:12.296Z,3.53
2022-07-25T13:35:39.679Z,3.20
2022-07-25T13:38:05.160Z,3.53
2022-07-25T13:40:31.581Z,3.10
2022-07-25T13:42:58.285Z,3.23
2022-07-25T13:45:24.730Z,3.07
2022-07-25T13:48:12.249Z,3.20
2022-07-25T13:50:17.540Z,3.40
2022-07-25T13:52:43.960Z,2.80
2022-07-25T13:55:10.362Z,3.10
2022-07-25T13:57:36.749Z,3.60
2022-07-25T14:00:03.163Z,3.60
2022-07-25T14:02:29.629Z,3.37
2022-07-25T14:04:57.204Z,3.20
2022-07-25T14:07:22.352Z,3.80
2022-07-25T14:09:48.751Z,2.60
2022-07-25T14:12:15.189Z,3.23
2022-07-25T14:14:41.588Z,2.87
2022-07-25T14:17:08.165Z,3.30
2022-07-25T14:19:34.390Z,3.17
2022-07-25T14:22:00.778Z,3.10
2022-07-25T14:24:27.168Z,3.20
2022-07-25T14:26:53.621Z,3.60
2022-07-25T14:29:19.998Z,3.37
2022-07-25T14:31:46.435Z,3.20
2022-07-25T14:34:12.781Z,3.90
2022-07-25T14:36:39.159Z,3.27
2022-07-25T14:39:05.910Z,3.13
2022-07-25T14:41:31.949Z,3.37
2022-07-25T14:43:58.350Z,3.20
2022-07-25T14:46:24.762Z,3.20
2022-07-25T14:48:51.236Z,3.57
2022-07-25T14:51:17.562Z,3.50
2022-07-25T14:53:47.782Z,3.07
2022-07-25T14:56:11.424Z,3.00
2022-07-25T14:58:37.804Z,3.40
2022-07-25T15:01:04.259Z,3.17
2022-07-25T15:03:30.637Z,3.10
2022-07-25T15:05:57.013Z,3.40
2022-07-25T15:08:23.402Z,3.37
2022-07-25T15:10:49.820Z,4.00
2022-07-25T15:13:32.431Z,3.10
2022-07-25T15:15:42.604Z,3.60
2022-07-25T15:18:13.683Z,3.97
2022-07-25T15:20:35.439Z,3.27
2022-07-25T15:23:01.954Z,3.50
2022-07-25T15:25:59.946Z,3.10
2022-07-25T15:27:54.752Z,3.73
2022-07-25T15:30:24.715Z,3.00
2022-07-25T15:32:47.624Z,3.57
2022-07-25T15:35:14.025Z,2.80
2022-07-25T15:37:40.422Z,3.00
2022-07-25T15:40:07.054Z,3.27
2022-07-25T15:42:33.441Z,3.20
2022-07-25T15:45:30.224Z,3.30
2022-07-25T15:47:26.218Z,3.30
2022-07-25T15:49:52.629Z,3.40
2022-07-25T15:52:19.023Z,3.33
2022-07-25T15:54:45.402Z,3.20
2022-07-25T15:57:11.788Z,3.60
2022-07-25T15:59:38.166Z,3.90
2022-07-25T16:02:04.553Z,3.90
2022-07-25T16:04:30.945Z,3.23
2022-07-25T16:06:57.334Z,3.70
2022-07-25T16:09:23.718Z,3.60
2022-07-25T16:11:50.101Z,3.30
2022-07-25T16:14:16.481Z,3.60
2022-07-25T16:16:42.913Z,3.50
2022-07-25T16:19:09.773Z,3.37
2022-07-25T16:21:35.711Z,3.40
2022-07-25T16:24:02.123Z,3.13
2022-07-25T16:26:28.504Z,3.23
2022-07-25T16:28:57.603Z,3.47
2022-07-25T16:31:21.582Z,3.73
2022-07-25T16:33:47.914Z,3.50
2022-07-25T16:36:14.290Z,3.47
2022-07-25T16:38:40.676Z,3.43
2022-07-25T16:41:07.052Z,4.00
2022-07-25T16:43:33.429Z,3.47
2022-07-25T16:45:59.834Z,3.43
2022-07-25T16:48:26.250Z,3.37
2022-07-25T16:50:52.609Z,3.57
2022-07-25T16:53:18.989Z,3.40
2022-07-25T16:55:45.470Z,3.40
2022-07-25T16:58:11.853Z,3.20
2022-07-25T17:00:38.232Z,3.40
2022-07-25T17:03:04.616Z,3.30
2022-07-25T17:05:32.202Z,3.13
2022-07-25T17:07:59.663Z,3.73
2022-07-25T17:10:23.777Z,3.47
2022-07-25T17:12:50.155Z,3.60
2022-07-25T17:15:16.629Z,3.13
2022-07-25T17:17:43.013Z,3.13
2022-07-25T17:20:09.492Z,3.50
2022-07-25T17:22:35.915Z,3.90
2022-07-25T17:25:02.304Z,3.40
2022-07-25T17:27:28.694Z,3.50
2022-07-25T17:29:55.111Z,3.50
2022-07-25T17:32:24.955Z,3.73
2022-07-25T17:34:49.071Z,3.33
2022-07-25T17:37:15.591Z,3.50
2022-07-25T17:39:40.636Z,3.30
2022-07-25T17:42:07.017Z,3.20
2022-07-25T17:44:33.422Z,4.03
2022-07-25T17:46:59.841Z,4.17
2022-07-25T17:49:26.245Z,3.67
2022-07-25T17:51:52.581Z,3.00
2022-07-25T17:54:18.953Z,3.43
2022-07-25T17:56:45.395Z,3.30
2022-07-25T17:59:11.798Z,3.77
2022-07-25T18:01:38.183Z,3.67
2022-07-25T18:04:04.839Z,3.20
2022-07-25T18:06:30.929Z,3.13
2022-07-25T18:08:57.348Z,3.77
2022-07-25T18:11:23.772Z,3.57
2022-07-25T18:13:50.171Z,3.30
2022-07-25T18:16:16.645Z,3.60
2022-07-25T18:18:42.944Z,3.60
2022-07-25T18:21:09.321Z,3.40
2022-07-25T18:23:35.708Z,3.70
2022-07-25T18:26:02.088Z,3.53
2022-07-25T18:28:28.475Z,3.83
2022-07-25T18:30:54.947Z,3.83
2022-07-25T18:33:21.238Z,3.50
2022-07-25T18:35:47.613Z,3.90
2022-07-25T18:38:13.992Z,3.37
2022-07-25T18:40:40.377Z,3.40
2022-07-25T18:43:08.974Z,3.37
2022-07-25T18:45:33.147Z,3.57
2022-07-25T18:47:59.533Z,3.57
2022-07-25T18:50:25.919Z,4.33
2022-07-25T18:52:53.955Z,3.80
2022-07-25T18:55:18.753Z,3.77
2022-07-25T18:57:45.215Z,3.33
2022-07-25T19:00:11.595Z,3.27
2022-07-25T19:02:38.007Z,3.60
2022-07-25T19:05:04.541Z,3.70
2022-07-25T19:07:30.887Z,3.60
2022-07-25T19:09:57.363Z,3.80
2022-07-25T19:12:23.762Z,3.50
2022-07-25T19:14:50.198Z,3.77
2022-07-25T19:17:16.612Z,3.80
2022-07-25T19:19:42.996Z,3.70
2022-07-25T19:22:09.391Z,3.50
2022-07-25T19:24:35.773Z,3.93
2022-07-25T19:27:02.184Z,3.53
2022-07-25T19:29:28.590Z,3.63
2022-07-25T19:31:54.976Z,3.50
2022-07-25T19:34:21.360Z,3.90
2022-07-25T19:36:47.756Z,3.57
2022-07-25T19:39:14.129Z,3.20
2022-07-25T19:41:44.771Z,3.90
2022-07-25T19:44:07.338Z,3.30
2022-07-25T19:46:33.500Z,3.90
2022-07-25T19:48:59.788Z,3.70
2022-07-25T19:51:26.135Z,3.63
2022-07-25T19:53:54.211Z,3.50
2022-07-25T19:56:18.931Z,3.80
2022-07-25T19:58:45.309Z,3.67
2022-07-25T20:01:11.764Z,3.60
2022-07-25T20:03:38.176Z,3.27
2022-07-25T20:06:08.119Z,3.27
2022-07-25T20:08:30.940Z,3.80
2022-07-25T20:10:57.313Z,3.40
2022-07-25T20:13:23.700Z,3.43
2022-07-25T20:15:52.966Z,3.63
2022-07-25T20:18:19.863Z,3.47
2022-07-25T20:20:45.740Z,3.70
2022-07-25T20:23:12.120Z,3.67
2022-07-25T20:25:38.505Z,3.40
2022-07-25T20:28:04.914Z,3.70
2022-07-25T20:30:34.826Z,4.07
2022-07-25T20:32:58.952Z,3.80
2022-07-25T20:35:24.127Z,3.70
2022-07-25T20:37:50.502Z,3.40
2022-07-25T20:40:16.891Z,3.33
2022-07-25T20:42:43.266Z,3.80
2022-07-25T20:45:11.319Z,3.40
2022-07-25T20:47:36.047Z,3.70
2022-07-25T20:50:02.446Z,3.63
2022-07-25T20:52:28.799Z,3.40
2022-07-25T20:54:55.186Z,3.57
2022-07-25T20:57:21.566Z,3.50
2022-07-25T20:59:47.950Z,3.40
2022-07-25T21:02:14.428Z,3.70
2022-07-25T21:04:40.731Z,3.80
2022-07-25T21:07:07.137Z,3.60
2022-07-25T21:09:33.498Z,3.90
2022-07-25T21:11:59.954Z,3.60
2022-07-25T21:14:26.344Z,3.80
2022-07-25T21:16:52.873Z,3.57
2022-07-25T21:19:19.213Z,3.73
2022-07-25T21:21:45.598Z,3.30
2022-07-25T21:24:11.986Z,3.60
2022-07-25T21:26:38.363Z,3.60
2022-07-25T21:29:05.007Z,3.50
2022-07-25T21:31:31.238Z,3.83
2022-07-25T21:33:57.569Z,3.60
2022-07-25T21:36:23.982Z,3.17
2022-07-25T21:38:50.405Z,3.40
2022-07-25T21:41:16.768Z,3.70
2022-07-25T21:43:43.151Z,3.50
2022-07-25T21:46:09.653Z,3.63
2022-07-25T21:48:35.958Z,3.23
2022-07-25T21:51:02.368Z,3.87
2022-07-25T21:53:28.812Z,3.60
2022-07-25T21:55:55.203Z,3.47
2022-07-25T21:58:21.582Z,3.40
2022-07-25T22:00:47.969Z,3.80
2022-07-25T22:03:14.354Z,3.47
2022-07-25T22:05:40.739Z,4.27
2022-07-25T22:08:07.129Z,3.40
2022-07-25T22:10:33.554Z,3.53
2022-07-25T22:12:59.928Z,3.90
2022-07-25T22:15:26.318Z,3.80
2022-07-25T22:17:52.755Z,3.43
2022-07-25T22:20:19.149Z,3.50
2022-07-25T22:22:45.599Z,3.83
2022-07-25T22:25:11.960Z,3.50
2022-07-25T22:27:38.367Z,3.50
2022-07-25T22:30:07.539Z,3.70
2022-07-25T22:32:33.921Z,3.73
2022-07-25T22:35:00.321Z,3.70
2022-07-25T22:37:26.711Z,3.60
2022-07-25T22:39:56.528Z,3.80
2022-07-25T22:42:19.510Z,3.63
2022-07-25T22:44:45.855Z,3.53
2022-07-25T22:47:12.247Z,3.40
2022-07-25T22:49:38.638Z,3.60
2022-07-25T22:52:05.024Z,3.80
2022-07-25T22:54:31.447Z,3.70
2022-07-25T22:56:57.794Z,3.30
2022-07-25T22:59:24.182Z,3.80
2022-07-25T23:01:50.566Z,3.53
2022-07-25T23:04:17.050Z,3.40
2022-07-25T23:06:43.435Z,4.10
2022-07-25T23:09:10.278Z,3.30
2022-07-25T23:11:36.156Z,3.67
2022-07-25T23:14:02.544Z,3.63
2022-07-25T23:16:28.954Z,3.70
2022-07-25T23:18:55.335Z,3.10
2022-07-25T23:21:21.753Z,3.67
2022-07-25T23:23:49.079Z,3.70
2022-07-25T23:26:14.523Z,3.70
2022-07-25T23:28:40.924Z,3.60
2022-07-25T23:31:07.349Z,3.50
2022-07-25T23:33:33.703Z,4.03
2022-07-25T23:36:00.097Z,3.40
2022-07-25T23:38:26.471Z,3.70
2022-07-25T23:40:53.834Z,3.10
2022-07-25T23:43:52.192Z,3.87
2022-07-25T23:45:45.634Z,4.10
2022-07-25T23:48:12.049Z,3.20
2022-07-25T23:50:38.429Z,3.50
2022-07-25T23:53:04.840Z,3.80
2022-07-25T23:55:31.218Z,3.90
2022-07-25T23:57:57.609Z,3.93
